Time;durP1;ratioP1;P1;durP2;ratioP2;P2;SDS_P1;SDS_P2;PMS_P1;PMS_P2;Temp;Humidity;BMP_temperature;BMP_pressure;BME280_temperature;BME280_humidity;BME280_pressure;Samples;Min_cycle;Max_cycle;Signal;HPM_P1;HPM_P2
2023/12/22 00:00:14;;;;;;;122.72;79.57;;;7.80;98.80;;;;;;4935262;29;20086;-73
2023/12/22 00:02:40;;;;;;;80.25;51.20;;;7.80;98.30;;;;;;4935430;29;20112;-74
2023/12/22 00:05:07;;;;;;;74.15;47.70;;;7.80;97.90;;;;;;4934867;29;20497;-73
2023/12/22 00:07:32;;;;;;;65.70;40.30;;;7.70;98.20;;;;;;4934907;29;20400;-75
2023/12/22 00:09:58;;;;;;;66.65;39.65;;;7.70;98.30;;;;;;4934709;29;20024;-74
2023/12/22 00:12:24;;;;;;;96.25;58.00;;;7.70;98.60;;;;;;4934998;29;20034;-74
2023/12/22 00:14:50;;;;;;;80.50;50.92;;;7.70;98.70;;;;;;4935241;29;20105;-74
2023/12/22 00:17:16;;;;;;;109.43;64.05;;;7.70;98.70;;;;;;4934963;29;20090;-73
2023/12/22 00:19:42;;;;;;;92.72;55.35;;;7.70;98.90;;;;;;4934902;29;20023;-74
2023/12/22 00:22:07;;;;;;;67.10;39.63;;;7.60;99.20;;;;;;4934891;29;20106;-74
2023/12/22 00:24:33;;;;;;;53.65;33.65;;;7.60;99.40;;;;;;4934798;29;20559;-74
2023/12/22 00:26:59;;;;;;;55.35;33.40;;;7.60;99.50;;;;;;4934825;29;20472;-74
2023/12/22 00:29:25;;;;;;;60.92;35.13;;;7.50;99.90;;;;;;4934916;29;20028;-73
2023/12/22 00:31:51;;;;;;;53.13;34.33;;;7.50;99.90;;;;;;4933625;29;20043;-73
2023/12/22 00:34:19;;;;;;;49.17;29.75;;;7.60;99.90;;;;;;4933654;29;20079;-75
2023/12/22 00:36:45;;;;;;;67.30;43.13;;;7.60;99.90;;;;;;4950683;29;20047;-73
2023/12/22 00:39:11;;;;;;;68.53;42.13;;;7.60;99.90;;;;;;4953900;28;20031;-74
2023/12/22 00:41:37;;;;;;;59.90;33.25;;;7.60;99.90;;;;;;4953942;29;20027;-76
2023/12/22 00:44:03;;;;;;;54.72;34.58;;;7.50;99.90;;;;;;4936317;29;20038;-74
2023/12/22 00:46:29;;;;;;;57.75;33.75;;;7.40;99.90;;;;;;4954002;28;20023;-73
2023/12/22 00:48:54;;;;;;;50.42;28.77;;;7.50;99.90;;;;;;4953608;28;20377;-73
2023/12/22 00:51:20;;;;;;;55.85;32.63;;;7.50;99.90;;;;;;4953829;29;20043;-73
2023/12/22 00:53:46;;;;;;;44.75;26.85;;;7.60;99.90;;;;;;4953713;28;20110;-73
2023/12/22 00:56:13;;;;;;;51.28;31.40;;;7.60;99.90;;;;;;4953961;28;20511;-73
2023/12/22 00:58:40;;;;;;;68.22;40.45;;;7.60;99.90;;;;;;4953569;28;20052;-74
2023/12/22 01:01:06;;;;;;;64.35;37.47;;;7.60;99.90;;;;;;4953879;28;20023;-74
2023/12/22 01:03:32;;;;;;;47.17;29.83;;;7.70;99.90;;;;;;4953513;28;20031;-74
2023/12/22 01:05:57;;;;;;;39.72;26.33;;;7.60;99.90;;;;;;4953436;28;20024;-73
2023/12/22 01:08:23;;;;;;;138.27;64.72;;;7.60;99.90;;;;;;4953500;28;20398;-74
2023/12/22 01:10:49;;;;;;;94.78;47.28;;;7.60;99.90;;;;;;4953529;29;20020;-77
2023/12/22 01:13:15;;;;;;;63.03;45.22;;;7.50;99.90;;;;;;4953639;28;20039;-73
2023/12/22 01:15:43;;;;;;;49.33;34.40;;;7.50;99.90;;;;;;4953392;29;20086;-74
2023/12/22 01:18:10;;;;;;;45.00;31.73;;;7.50;99.90;;;;;;4953484;28;20098;-74
2023/12/22 01:20:36;;;;;;;49.15;28.40;;;7.50;99.90;;;;;;4955931;28;20035;-75
2023/12/22 01:23:02;;;;;;;47.83;25.23;;;7.50;99.90;;;;;;4956956;28;20037;-73
2023/12/22 01:25:28;;;;;;;140.60;67.50;;;7.60;99.90;;;;;;4957116;28;20111;-74
2023/12/22 01:27:54;;;;;;;133.57;58.15;;;7.50;99.90;;;;;;4957359;28;20045;-73
2023/12/22 01:30:20;;;;;;;171.35;79.70;;;7.50;99.90;;;;;;4957199;28;20054;-75
2023/12/22 01:32:46;;;;;;;99.43;48.00;;;7.50;99.90;;;;;;4956844;28;20027;-74
2023/12/22 01:35:12;;;;;;;82.82;41.17;;;7.50;99.90;;;;;;4956878;28;20039;-73
2023/12/22 01:37:38;;;;;;;58.50;32.40;;;7.40;99.90;;;;;;4956606;28;20046;-74
2023/12/22 01:40:05;;;;;;;53.00;31.33;;;7.40;99.90;;;;;;4957083;29;20020;-73
2023/12/22 01:42:31;;;;;;;51.15;31.02;;;7.40;99.90;;;;;;4956582;28;20391;-72
2023/12/22 01:44:57;;;;;;;65.13;38.95;;;7.40;99.90;;;;;;4957059;29;20019;-73
2023/12/22 01:47:23;;;;;;;56.38;33.53;;;7.40;99.90;;;;;;4939330;29;20043;-72
2023/12/22 01:49:49;;;;;;;66.28;34.22;;;7.40;99.90;;;;;;4939476;29;20122;-73
2023/12/22 01:52:16;;;;;;;64.63;36.28;;;7.40;99.90;;;;;;4956433;28;20106;-73
2023/12/22 01:54:42;;;;;;;72.32;40.05;;;7.30;99.90;;;;;;4956445;29;20030;-73
2023/12/22 01:57:09;;;;;;;50.85;31.50;;;7.30;99.90;;;;;;4956439;28;20051;-75
2023/12/22 01:59:35;;;;;;;56.40;34.10;;;7.30;99.90;;;;;;4956574;29;20031;-73
2023/12/22 02:02:02;;;;;;;72.40;36.30;;;7.30;99.90;;;;;;4956593;29;20031;-74
2023/12/22 02:04:30;;;;;;;53.90;27.55;;;7.30;99.90;;;;;;4956402;28;20027;-73
2023/12/22 02:07:02;;;;;;;66.55;36.17;;;7.20;99.90;;;;;;4956311;29;20502;-72
2023/12/22 02:09:28;;;;;;;60.35;37.83;;;7.10;99.90;;;;;;4956228;28;20492;-74
2023/12/22 02:11:54;;;;;;;53.80;33.35;;;7.20;99.90;;;;;;4938914;29;20061;-76
2023/12/22 02:14:20;;;;;;;55.45;35.13;;;7.10;99.90;;;;;;4956421;29;20379;-76
2023/12/22 02:16:59;;;;;;;48.78;29.23;;;7.00;99.90;;;;;;4956272;29;20027;-74
2023/12/22 02:19:45;;;;;;;51.67;30.60;;;7.00;99.90;;;;;;4956385;29;20027;-74
2023/12/22 02:22:12;;;;;;;46.15;29.15;;;6.90;99.90;;;;;;4956104;28;20078;-73
2023/12/22 02:24:41;;;;;;;57.33;33.92;;;6.90;99.90;;;;;;4956000;29;20019;-74
2023/12/22 02:27:36;;;;;;;56.97;33.63;;;6.90;99.90;;;;;;4939003;29;20118;-74
2023/12/22 02:30:14;;;;;;;45.53;26.60;;;6.80;99.90;;;;;;4956036;28;20051;-76
2023/12/22 02:32:47;;;;;;;43.53;28.00;;;6.80;99.90;;;;;;4955826;29;20035;-74
2023/12/22 02:35:21;;;;;;;52.85;29.50;;;6.80;99.90;;;;;;4955934;28;20094;-76
2023/12/22 02:37:48;;;;;;;46.50;28.02;;;6.70;99.90;;;;;;4955530;29;20121;-74
2023/12/22 02:40:15;;;;;;;42.33;25.02;;;6.70;99.90;;;;;;4956086;29;20031;-74
2023/12/22 02:42:42;;;;;;;45.28;29.40;;;6.70;99.90;;;;;;4955440;29;20035;-75
2023/12/22 02:45:14;;;;;;;43.47;26.38;;;6.70;99.90;;;;;;4955692;28;20379;-77
2023/12/22 02:47:41;;;;;;;38.95;23.45;;;6.70;99.90;;;;;;4938499;29;20047;-74
2023/12/22 02:50:07;;;;;;;51.00;26.58;;;6.80;99.90;;;;;;4955703;29;20078;-75
2023/12/22 02:52:33;;;;;;;38.03;24.30;;;6.80;99.90;;;;;;4955551;28;20027;-76
2023/12/22 02:54:59;;;;;;;40.22;25.75;;;6.80;99.90;;;;;;4955283;29;20379;-78
2023/12/22 02:57:25;;;;;;;42.47;26.02;;;6.80;99.90;;;;;;4955642;29;20531;-74
2023/12/22 02:59:51;;;;;;;36.88;20.90;;;6.60;99.90;;;;;;4955311;28;20027;-75
2023/12/22 03:02:17;;;;;;;36.80;19.08;;;6.60;99.90;;;;;;4955637;28;20447;-74
2023/12/22 03:04:43;;;;;;;33.45;16.58;;;6.60;99.90;;;;;;4955046;28;20031;-75
2023/12/22 03:07:09;;;;;;;27.33;14.45;;;6.70;99.90;;;;;;4955271;29;20047;-75
2023/12/22 03:09:35;;;;;;;16.75;8.15;;;6.80;99.90;;;;;;4955163;29;20023;-77
2023/12/22 03:12:01;;;;;;;15.27;8.50;;;7.60;99.90;;;;;;4955320;29;20110;-74
2023/12/22 03:14:33;;;;;;;14.40;7.28;;;8.00;99.90;;;;;;4955449;28;20527;-76
2023/12/22 03:17:00;;;;;;;13.07;6.63;;;8.20;99.90;;;;;;4937941;29;20038;-77
2023/12/22 03:19:26;;;;;;;10.90;5.70;;;8.40;99.90;;;;;;4937987;29;20388;-73
2023/12/22 03:21:52;;;;;;;14.68;5.88;;;8.70;99.90;;;;;;4955123;28;20081;-74
2023/12/22 03:24:19;;;;;;;13.48;5.82;;;8.80;99.90;;;;;;4955065;29;20110;-73
2023/12/22 03:26:45;;;;;;;11.90;5.90;;;8.90;99.90;;;;;;4954748;29;20109;-74
2023/12/22 03:29:11;;;;;;;10.80;5.57;;;9.00;99.90;;;;;;4954800;28;20122;-73
2023/12/22 03:31:37;;;;;;;10.18;4.70;;;9.20;99.90;;;;;;4955116;28;20133;-74
2023/12/22 03:34:03;;;;;;;14.20;4.75;;;9.30;99.90;;;;;;4954544;28;20110;-73
2023/12/22 03:36:29;;;;;;;12.85;5.32;;;9.30;99.90;;;;;;4954924;29;20051;-73
2023/12/22 03:38:55;;;;;;;8.40;4.85;;;9.20;99.90;;;;;;4954436;29;20437;-74
2023/12/22 03:41:21;;;;;;;10.68;5.22;;;9.10;99.90;;;;;;4955168;29;20082;-74
2023/12/22 03:43:46;;;;;;;11.73;5.88;;;9.00;99.90;;;;;;4954417;28;20423;-73
2023/12/22 03:46:12;;;;;;;12.23;7.40;;;8.90;99.90;;;;;;4954810;29;20031;-75
2023/12/22 03:48:38;;;;;;;14.70;7.68;;;8.80;99.90;;;;;;4954451;28;20497;-73
2023/12/22 03:51:04;;;;;;;17.10;8.40;;;8.80;99.90;;;;;;4954948;29;20022;-74
2023/12/22 03:53:30;;;;;;;15.02;8.98;;;8.60;99.90;;;;;;4936123;29;20094;-73
2023/12/22 03:55:56;;;;;;;19.05;9.85;;;8.50;99.90;;;;;;4947604;29;20019;-74
2023/12/22 03:58:22;;;;;;;16.00;9.65;;;8.50;99.90;;;;;;4949204;29;20399;-74
2023/12/22 04:00:48;;;;;;;18.02;10.38;;;8.40;99.90;;;;;;4954590;28;20073;-74
2023/12/22 04:03:14;;;;;;;21.73;11.55;;;8.40;99.90;;;;;;4954381;29;20035;-73
2023/12/22 04:05:40;;;;;;;18.60;11.98;;;8.30;99.90;;;;;;4954492;28;20066;-73
2023/12/22 04:08:06;;;;;;;20.85;12.27;;;8.30;99.90;;;;;;4954230;29;20054;-74
2023/12/22 04:10:34;;;;;;;20.10;11.95;;;8.20;99.90;;;;;;4954275;29;20497;-76
2023/12/22 04:13:00;;;;;;;17.65;10.57;;;8.20;99.90;;;;;;4954654;28;20450;-73
2023/12/22 04:15:26;;;;;;;22.27;12.85;;;8.10;99.90;;;;;;4937233;29;20110;-73
2023/12/22 04:17:52;;;;;;;22.38;11.88;;;8.10;99.90;;;;;;4954423;28;20031;-72
2023/12/22 04:20:18;;;;;;;22.05;12.70;;;8.00;99.90;;;;;;4954230;28;20042;-74
2023/12/22 04:22:43;;;;;;;20.10;11.07;;;8.00;99.90;;;;;;4954064;28;20038;-74
2023/12/22 04:25:09;;;;;;;19.45;11.10;;;8.00;99.90;;;;;;4954246;29;20030;-73
2023/12/22 04:27:35;;;;;;;20.45;10.88;;;7.90;99.90;;;;;;4953697;29;20035;-74
2023/12/22 04:30:01;;;;;;;19.23;11.18;;;7.90;99.90;;;;;;4937047;29;20035;-74
2023/12/22 04:32:27;;;;;;;16.73;10.13;;;7.90;99.90;;;;;;4953616;28;20036;-76
2023/12/22 04:34:53;;;;;;;17.92;10.70;;;7.90;99.90;;;;;;4954057;29;20110;-74
2023/12/22 04:37:19;;;;;;;19.58;12.05;;;7.80;99.90;;;;;;4954018;28;20099;-73
2023/12/22 04:39:45;;;;;;;20.58;11.45;;;7.80;99.90;;;;;;4953882;29;20427;-75
2023/12/22 04:42:11;;;;;;;18.90;11.55;;;7.80;99.90;;;;;;4953390;28;20027;-76
2023/12/22 04:44:37;;;;;;;21.60;12.45;;;7.80;99.90;;;;;;4954091;29;20027;-74
2023/12/22 04:47:03;;;;;;;21.88;11.95;;;7.80;99.90;;;;;;4953441;29;20035;-75
2023/12/22 04:49:29;;;;;;;19.63;11.65;;;7.70;99.90;;;;;;4936873;29;20110;-74
2023/12/22 04:51:54;;;;;;;21.02;12.25;;;7.60;99.90;;;;;;4946395;29;20459;-74
2023/12/22 04:54:20;;;;;;;21.48;12.50;;;7.60;99.90;;;;;;4947729;28;20396;-72
2023/12/22 04:56:46;;;;;;;20.45;12.52;;;7.50;99.90;;;;;;4946728;29;20030;-76
2023/12/22 04:59:12;;;;;;;25.70;13.73;;;7.50;99.90;;;;;;4957129;29;20031;-74
2023/12/22 05:01:38;;;;;;;22.60;13.93;;;7.50;99.90;;;;;;4957566;28;20031;-74
2023/12/22 05:04:04;;;;;;;22.10;12.98;;;7.40;99.90;;;;;;4957295;28;20391;-73
2023/12/22 05:06:30;;;;;;;22.38;13.38;;;7.40;99.90;;;;;;4957762;28;20031;-73
2023/12/22 05:08:58;;;;;;;26.17;15.18;;;7.40;99.90;;;;;;4957229;28;20031;-75
2023/12/22 05:11:24;;;;;;;23.95;14.98;;;7.50;99.90;;;;;;4957775;28;20030;-73
2023/12/22 05:13:50;;;;;;;23.88;14.55;;;7.50;99.90;;;;;;4940078;29;20059;-73
2023/12/22 05:16:16;;;;;;;23.40;14.82;;;7.50;99.90;;;;;;4956881;28;20077;-77
2023/12/22 05:18:42;;;;;;;24.15;14.70;;;7.50;99.90;;;;;;4926667;29;20036;-73
2023/12/22 05:21:07;;;;;;;26.15;16.48;;;7.50;99.90;;;;;;4957233;29;20094;-77
2023/12/22 05:23:33;;;;;;;33.50;22.00;;;7.60;99.90;;;;;;4957193;28;20027;-77
2023/12/22 05:25:59;;;;;;;46.05;34.05;;;7.60;99.90;;;;;;4939927;29;20063;-76
2023/12/22 05:28:25;;;;;;;56.78;33.42;;;7.60;99.90;;;;;;4957141;28;20232;-74
2023/12/22 05:30:51;;;;;;;45.75;27.80;;;7.60;99.90;;;;;;4939312;29;20152;-74
2023/12/22 05:33:17;;;;;;;65.43;42.42;;;7.50;99.90;;;;;;4949308;29;20394;-76
2023/12/22 05:35:43;;;;;;;150.25;91.78;;;7.40;99.90;;;;;;4939031;28;20475;-73
2023/12/22 05:38:08;;;;;;;81.68;50.38;;;7.50;99.90;;;;;;4924103;29;20035;-73
2023/12/22 05:40:34;;;;;;;61.30;34.35;;;7.50;99.90;;;;;;4956661;29;20031;-73
2023/12/22 05:43:00;;;;;;;56.70;30.30;;;7.40;99.90;;;;;;4957018;28;20027;-74
2023/12/22 05:45:26;;;;;;;46.72;28.40;;;7.30;99.90;;;;;;4956689;29;20381;-74
2023/12/22 05:47:52;;;;;;;43.95;29.35;;;7.30;99.90;;;;;;4956735;29;20074;-73
2023/12/22 05:50:18;;;;;;;50.05;36.05;;;7.30;99.90;;;;;;4956538;28;20056;-73
2023/12/22 05:52:44;;;;;;;41.35;27.55;;;7.20;99.90;;;;;;4956750;29;20039;-73
2023/12/22 05:55:10;;;;;;;41.35;28.58;;;7.20;99.90;;;;;;4956901;28;20070;-74
2023/12/22 05:57:36;;;;;;;41.17;24.65;;;7.10;99.90;;;;;;4956716;28;20380;-74
2023/12/22 06:00:07;;;;;;;34.72;23.27;;;7.10;99.90;;;;;;4956599;29;20015;-74
2023/12/22 06:02:33;;;;;;;30.05;19.63;;;7.10;99.90;;;;;;4956512;28;20067;-74
2023/12/22 06:05:00;;;;;;;31.92;20.13;;;7.10;99.90;;;;;;4956200;28;20530;-74
2023/12/22 06:07:26;;;;;;;29.17;18.70;;;7.10;99.90;;;;;;4956156;28;20039;-72
2023/12/22 06:09:52;;;;;;;33.08;20.50;;;7.10;99.90;;;;;;4956600;28;20411;-74
2023/12/22 06:12:18;;;;;;;31.92;20.02;;;7.10;99.90;;;;;;4956351;28;20042;-74
2023/12/22 06:14:44;;;;;;;32.17;19.27;;;7.10;99.90;;;;;;4956310;29;20039;-74
2023/12/22 06:17:10;;;;;;;31.63;19.95;;;7.20;99.90;;;;;;4956307;28;20487;-73
2023/12/22 06:19:36;;;;;;;36.22;23.67;;;7.20;99.90;;;;;;4956092;29;20150;-73
2023/12/22 06:22:02;;;;;;;35.90;22.35;;;7.20;99.90;;;;;;4956092;28;20038;-73
2023/12/22 06:24:28;;;;;;;24.55;15.75;;;7.20;99.90;;;;;;4955892;28;20015;-74
2023/12/22 06:26:54;;;;;;;27.02;15.40;;;7.20;99.90;;;;;;4956280;29;20042;-74
2023/12/22 06:29:20;;;;;;;24.75;15.43;;;7.20;99.90;;;;;;4955797;29;20530;-74
2023/12/22 06:31:50;;;;;;;24.90;14.70;;;7.30;99.90;;;;;;4956244;29;20082;-73
2023/12/22 06:34:19;;;;;;;22.58;13.48;;;7.30;99.90;;;;;;4955593;29;20031;-73
2023/12/22 06:36:45;;;;;;;19.08;12.55;;;7.30;99.90;;;;;;4955642;29;20066;-74
2023/12/22 06:39:11;;;;;;;20.77;13.38;;;7.30;99.90;;;;;;4955833;29;20106;-74
2023/12/22 06:41:37;;;;;;;23.67;14.35;;;7.30;99.90;;;;;;4955677;29;20510;-73
2023/12/22 06:44:02;;;;;;;24.83;14.40;;;7.30;99.90;;;;;;4955918;28;20023;-74
2023/12/22 06:46:30;;;;;;;22.67;15.70;;;7.30;99.90;;;;;;4955856;29;20435;-74
2023/12/22 06:48:57;;;;;;;24.25;15.00;;;7.30;99.90;;;;;;4955680;29;20036;-73
2023/12/22 06:51:25;;;;;;;19.77;13.50;;;7.30;99.90;;;;;;4955562;28;20024;-73
2023/12/22 06:53:52;;;;;;;27.60;15.63;;;7.40;99.90;;;;;;4955713;29;20551;-73
2023/12/22 06:56:23;;;;;;;28.13;15.70;;;7.40;99.90;;;;;;4938372;29;20031;-72
2023/12/22 06:58:51;;;;;;;24.80;13.43;;;7.40;99.90;;;;;;4955257;29;20427;-73
2023/12/22 07:01:43;;;;;;;20.83;12.45;;;7.40;99.90;;;;;;4955563;28;20034;-73
2023/12/22 07:04:09;;;;;;;24.35;14.02;;;7.40;99.90;;;;;;4951935;28;20102;-73
2023/12/22 07:06:35;;;;;;;21.80;13.05;;;7.40;99.90;;;;;;4955235;28;20043;-74
2023/12/22 07:09:19;;;;;;;19.88;12.07;;;7.40;99.90;;;;;;4955662;29;20031;-75
2023/12/22 07:11:52;;;;;;;22.33;13.43;;;7.40;99.90;;;;;;4955137;29;20023;-74
2023/12/22 07:14:18;;;;;;;23.92;13.75;;;7.40;99.90;;;;;;4955344;28;20102;-74
2023/12/22 07:16:44;;;;;;;22.15;13.55;;;7.50;99.90;;;;;;4954548;28;20050;-73
2023/12/22 07:19:12;;;;;;;22.45;12.30;;;7.50;99.90;;;;;;4954715;29;20498;-73
2023/12/22 07:21:39;;;;;;;26.58;13.10;;;7.50;99.90;;;;;;4955121;29;20110;-73
2023/12/22 07:24:06;;;;;;;23.92;12.88;;;7.50;99.90;;;;;;4955020;29;20031;-73
2023/12/22 07:26:32;;;;;;;21.63;13.07;;;7.60;99.90;;;;;;4955010;29;20085;-73
2023/12/22 07:28:58;;;;;;;21.33;12.00;;;7.60;99.90;;;;;;4954678;28;20035;-74
2023/12/22 07:31:24;;;;;;;20.70;12.07;;;7.60;99.90;;;;;;4955304;29;20024;-74
2023/12/22 07:33:51;;;;;;;27.92;12.95;;;7.60;99.90;;;;;;4954621;29;20495;-74
2023/12/22 07:36:24;;;;;;;24.88;13.98;;;7.70;99.90;;;;;;4942191;29;20039;-73
2023/12/22 07:38:49;;;;;;;20.38;11.40;;;7.70;99.90;;;;;;4937454;29;20035;-73
2023/12/22 07:41:15;;;;;;;18.58;10.68;;;7.70;99.90;;;;;;4954752;28;20030;-74
2023/12/22 07:43:42;;;;;;;21.40;12.02;;;7.70;99.90;;;;;;4954552;28;20154;-74
2023/12/22 07:46:09;;;;;;;18.75;11.07;;;7.80;99.90;;;;;;4954752;28;20023;-74
2023/12/22 07:48:35;;;;;;;20.13;10.68;;;7.90;99.90;;;;;;4937354;29;20094;-73
2023/12/22 07:51:00;;;;;;;18.73;11.60;;;8.00;99.90;;;;;;4954683;28;20023;-75
2023/12/22 07:53:26;;;;;;;16.25;10.30;;;8.00;99.90;;;;;;4954665;29;20162;-74
2023/12/22 07:55:55;;;;;;;20.30;11.20;;;8.00;99.90;;;;;;4954823;29;20046;-73
2023/12/22 07:58:21;;;;;;;25.60;13.98;;;8.10;99.90;;;;;;4937385;29;20031;-74
2023/12/22 08:00:47;;;;;;;19.13;11.65;;;8.10;99.90;;;;;;4954455;28;20394;-74
2023/12/22 08:03:13;;;;;;;18.23;10.88;;;8.10;99.90;;;;;;4954069;29;20557;-74
2023/12/22 08:05:39;;;;;;;16.77;9.95;;;8.30;99.90;;;;;;4937010;29;20131;-74
2023/12/22 08:08:05;;;;;;;16.48;9.95;;;8.40;99.90;;;;;;4954125;29;20491;-74
2023/12/22 08:10:31;;;;;;;16.95;9.55;;;8.40;99.90;;;;;;4954180;29;20066;-73
2023/12/22 08:12:57;;;;;;;17.05;9.85;;;8.50;99.90;;;;;;4954079;28;20539;-73
2023/12/22 08:15:23;;;;;;;18.77;11.18;;;8.50;99.90;;;;;;4954304;28;20102;-73
2023/12/22 08:17:51;;;;;;;19.40;11.73;;;8.40;99.90;;;;;;4954035;28;20098;-73
2023/12/22 08:20:21;;;;;;;20.83;11.77;;;8.50;99.90;;;;;;4954303;29;20021;-74
2023/12/22 08:22:48;;;;;;;20.23;10.85;;;8.50;99.90;;;;;;4953731;29;20046;-74
2023/12/22 08:25:14;;;;;;;21.05;11.60;;;8.50;99.90;;;;;;4954248;28;20043;-74
2023/12/22 08:27:41;;;;;;;17.85;10.65;;;8.50;99.90;;;;;;4953883;29;20090;-74
2023/12/22 08:30:08;;;;;;;19.17;12.05;;;8.60;99.90;;;;;;4953695;28;20027;-74
2023/12/22 08:32:34;;;;;;;20.83;11.90;;;8.60;99.90;;;;;;4954175;29;20039;-73
2023/12/22 08:35:00;;;;;;;19.40;11.93;;;8.60;99.90;;;;;;4953767;29;20460;-74
2023/12/22 08:37:26;;;;;;;19.60;11.18;;;8.60;99.90;;;;;;4953873;29;20058;-74
2023/12/22 08:39:52;;;;;;;14.73;9.48;;;8.60;99.90;;;;;;4953722;29;20027;-74
2023/12/22 08:42:18;;;;;;;21.90;10.95;;;8.50;99.90;;;;;;4953433;29;20035;-74
2023/12/22 08:44:44;;;;;;;18.52;9.50;;;8.50;99.90;;;;;;4953577;29;20019;-74
2023/12/22 08:47:10;;;;;;;14.90;9.32;;;8.50;99.90;;;;;;4953801;29;20042;-74
2023/12/22 08:49:36;;;;;;;17.65;9.85;;;8.50;99.90;;;;;;4953833;28;20031;-75
2023/12/22 08:52:03;;;;;;;15.40;8.88;;;8.50;99.90;;;;;;4953420;28;20028;-74
2023/12/22 08:54:30;;;;;;;19.48;11.20;;;8.50;99.90;;;;;;4954074;29;20019;-73
2023/12/22 08:56:56;;;;;;;20.20;12.05;;;8.50;99.90;;;;;;4953503;28;20129;-73
2023/12/22 08:59:21;;;;;;;23.05;12.93;;;8.50;99.90;;;;;;4953896;29;20052;-74
2023/12/22 09:01:48;;;;;;;30.23;14.70;;;8.50;99.90;;;;;;4953495;29;20047;-73
2023/12/22 09:04:14;;;;;;;23.42;12.20;;;8.40;99.90;;;;;;4953881;29;20023;-73
2023/12/22 09:06:41;;;;;;;25.33;12.82;;;8.40;99.90;;;;;;4936266;29;20046;-73
2023/12/22 09:09:08;;;;;;;24.30;14.32;;;8.50;99.90;;;;;;4953742;28;20129;-72
2023/12/22 09:11:34;;;;;;;25.70;13.10;;;8.60;99.90;;;;;;4953273;29;20023;-72
2023/12/22 09:14:00;;;;;;;21.88;12.85;;;8.60;99.90;;;;;;4936733;29;20463;-74
2023/12/22 09:16:29;;;;;;;22.65;14.57;;;8.60;99.90;;;;;;4953521;29;20035;-75
2023/12/22 09:18:55;;;;;;;21.00;13.13;;;8.60;99.90;;;;;;4953408;29;20019;-74
2023/12/22 09:21:21;;;;;;;26.13;17.00;;;8.70;99.90;;;;;;4953443;29;20090;-75
2023/12/22 09:23:47;;;;;;;35.05;21.58;;;8.70;99.90;;;;;;4953360;29;20400;-72
2023/12/22 09:26:14;;;;;;;40.70;25.30;;;8.80;99.90;;;;;;4953287;29;20031;-74
2023/12/22 09:28:40;;;;;;;35.50;21.77;;;8.80;99.90;;;;;;4953309;29;20102;-74
2023/12/22 09:31:08;;;;;;;26.80;17.67;;;8.70;99.90;;;;;;4953200;29;20105;-74
2023/12/22 09:33:34;;;;;;;28.75;17.77;;;8.70;99.90;;;;;;4952997;29;20032;-74
2023/12/22 09:36:00;;;;;;;28.88;20.30;;;8.70;99.90;;;;;;4953297;28;20123;-74
2023/12/22 09:38:25;;;;;;;32.45;19.35;;;8.70;99.90;;;;;;4935869;29;20483;-74
2023/12/22 09:40:51;;;;;;;26.17;16.90;;;8.80;99.90;;;;;;4936827;29;20110;-76
2023/12/22 09:43:20;;;;;;;22.88;15.25;;;8.70;99.90;;;;;;4939638;29;20023;-74
2023/12/22 09:45:46;;;;;;;22.83;15.05;;;8.70;99.90;;;;;;4956501;28;20058;-73
2023/12/22 09:48:17;;;;;;;24.15;15.65;;;8.70;99.90;;;;;;4956731;29;20031;-74
2023/12/22 09:50:46;;;;;;;27.02;16.83;;;8.70;99.90;;;;;;4956487;28;20034;-75
2023/12/22 09:53:13;;;;;;;26.10;15.93;;;8.80;99.90;;;;;;4939589;29;20023;-74
2023/12/22 09:55:45;;;;;;;22.60;14.63;;;8.80;99.90;;;;;;4956476;28;20368;-74
2023/12/22 09:58:14;;;;;;;23.80;15.27;;;8.70;99.90;;;;;;4956199;28;20042;-74
2023/12/22 10:00:40;;;;;;;26.90;17.70;;;8.70;99.90;;;;;;4956894;28;20647;-74
2023/12/22 10:03:07;;;;;;;32.28;19.23;;;8.80;99.90;;;;;;4956263;28;20035;-74
2023/12/22 10:05:33;;;;;;;25.40;16.38;;;8.80;99.90;;;;;;4956485;28;20499;-74
2023/12/22 10:08:01;;;;;;;24.63;16.35;;;8.90;99.90;;;;;;4956291;29;20126;-74
2023/12/22 10:10:30;;;;;;;21.90;13.73;;;9.10;99.90;;;;;;4956609;29;20031;-74
2023/12/22 10:12:58;;;;;;;20.73;13.18;;;9.40;99.90;;;;;;4955919;28;20035;-75
2023/12/22 10:15:25;;;;;;;21.50;13.55;;;9.70;99.90;;;;;;4939266;29;20039;-74
2023/12/22 10:17:54;;;;;;;22.73;13.88;;;9.90;99.90;;;;;;4955858;28;20542;-74
2023/12/22 10:20:21;;;;;;;27.40;15.50;;;10.00;99.90;;;;;;4956134;29;20360;-74
2023/12/22 10:22:47;;;;;;;25.05;14.45;;;10.10;99.90;;;;;;4956105;28;20039;-74
2023/12/22 10:25:20;;;;;;;23.50;15.45;;;10.20;99.90;;;;;;4956043;28;20077;-74
2023/12/22 10:27:46;;;;;;;24.85;14.80;;;10.30;99.90;;;;;;4955973;28;20039;-74
2023/12/22 10:30:12;;;;;;;22.13;13.90;;;10.30;99.90;;;;;;4956078;29;20031;-74
2023/12/22 10:32:42;;;;;;;19.90;11.70;;;10.40;99.90;;;;;;4955906;29;20074;-74
2023/12/22 10:35:12;;;;;;;18.95;12.00;;;10.30;99.90;;;;;;4955634;28;20043;-76
2023/12/22 10:37:38;;;;;;;20.13;12.38;;;10.30;99.90;;;;;;4955680;29;20039;-74
2023/12/22 10:40:05;;;;;;;19.85;11.32;;;10.30;99.90;;;;;;4956128;28;20050;-74
2023/12/22 10:42:32;;;;;;;22.00;12.15;;;10.30;99.90;;;;;;4955754;28;20031;-72
2023/12/22 10:44:58;;;;;;;24.40;13.55;;;10.40;99.90;;;;;;4955936;28;20078;-73
2023/12/22 10:47:24;;;;;;;18.55;11.85;;;10.40;99.90;;;;;;4955401;28;20059;-73
2023/12/22 10:49:50;;;;;;;22.13;12.93;;;10.30;99.90;;;;;;4955845;28;20023;-73
2023/12/22 10:52:18;;;;;;;22.60;13.88;;;10.20;99.90;;;;;;4954202;28;20028;-73
2023/12/22 10:54:44;;;;;;;23.52;14.32;;;10.20;99.90;;;;;;4955670;29;20098;-73
2023/12/22 10:57:11;;;;;;;23.15;14.88;;;10.20;99.90;;;;;;4955141;28;20027;-72
2023/12/22 10:59:45;;;;;;;25.17;15.27;;;10.10;99.90;;;;;;4955684;29;20039;-72
2023/12/22 11:02:17;;;;;;;26.33;14.50;;;10.00;99.90;;;;;;4943071;29;20031;-73
2023/12/22 11:05:00;;;;;;;26.63;15.50;;;10.00;99.90;;;;;;4954861;28;20454;-73
2023/12/22 11:07:28;;;;;;;25.30;15.35;;;10.10;99.90;;;;;;4955429;29;20558;-73
2023/12/22 11:09:57;;;;;;;24.73;15.77;;;10.20;99.90;;;;;;4938153;29;20420;-73
2023/12/22 11:12:26;;;;;;;28.25;16.25;;;10.40;99.90;;;;;;4938069;29;20041;-72
2023/12/22 11:14:57;;;;;;;24.27;14.93;;;10.50;99.90;;;;;;4955192;28;20095;-73
2023/12/22 11:17:23;;;;;;;22.73;14.40;;;10.40;99.90;;;;;;4955092;29;20046;-76
2023/12/22 11:19:56;;;;;;;18.33;10.77;;;10.40;99.90;;;;;;4955114;29;20020;-75
2023/12/22 11:22:22;;;;;;;20.38;12.13;;;10.40;99.90;;;;;;4954826;28;20034;-74
2023/12/22 11:24:49;;;;;;;20.15;11.85;;;10.40;99.90;;;;;;4954636;29;20050;-74
2023/12/22 11:27:19;;;;;;;18.67;12.18;;;10.40;99.90;;;;;;4954865;29;20105;-74
2023/12/22 11:29:49;;;;;;;19.50;11.55;;;10.40;99.90;;;;;;4954743;29;20027;-74
2023/12/22 11:32:16;;;;;;;20.45;11.60;;;10.50;99.90;;;;;;4954685;29;20090;-74
2023/12/22 11:34:44;;;;;;;19.73;11.05;;;10.40;99.90;;;;;;4954591;28;20098;-74
2023/12/22 11:37:13;;;;;;;20.67;11.32;;;10.50;99.90;;;;;;4954886;28;20043;-75
2023/12/22 11:39:43;;;;;;;18.73;10.27;;;10.50;99.90;;;;;;4954729;28;20019;-75
2023/12/22 11:42:14;;;;;;;19.20;10.30;;;10.50;99.90;;;;;;4954449;28;20062;-74
2023/12/22 11:44:40;;;;;;;19.25;10.13;;;10.60;99.90;;;;;;4954954;29;20031;-74
2023/12/22 11:47:06;;;;;;;20.60;10.73;;;10.50;99.90;;;;;;4954158;29;20106;-74
2023/12/22 11:49:36;;;;;;;21.80;12.13;;;10.50;99.90;;;;;;4954817;28;20039;-74
2023/12/22 11:52:18;;;;;;;28.05;20.40;;;10.60;99.90;;;;;;4954531;29;20372;-74
2023/12/22 11:54:49;;;;;;;33.42;24.95;;;10.50;99.90;;;;;;4954457;29;20027;-74
2023/12/22 11:57:31;;;;;;;22.05;12.50;;;10.60;99.90;;;;;;4954328;29;20081;-75
2023/12/22 11:59:58;;;;;;;19.95;12.10;;;10.50;99.90;;;;;;4936979;29;20480;-75
2023/12/22 12:02:25;;;;;;;20.85;11.55;;;10.30;99.90;;;;;;4954604;29;20020;-74
2023/12/22 12:04:52;;;;;;;20.98;11.65;;;10.20;99.90;;;;;;4953973;28;20038;-74
2023/12/22 12:07:40;;;;;;;21.10;11.20;;;10.10;99.90;;;;;;4954329;29;20042;-74
2023/12/22 12:10:08;;;;;;;26.02;11.00;;;10.20;99.90;;;;;;4954486;28;20106;-74
2023/12/22 12:12:36;;;;;;;23.52;12.27;;;10.30;99.90;;;;;;4954087;29;20027;-74
2023/12/22 12:15:18;;;;;;;26.27;12.90;;;10.60;99.90;;;;;;4954392;28;20081;-75
2023/12/22 12:17:48;;;;;;;23.25;12.50;;;10.70;99.90;;;;;;4937350;29;20035;-74
2023/12/22 12:20:14;;;;;;;19.30;8.23;;;10.80;99.90;;;;;;4954061;28;20686;-74
2023/12/22 12:22:43;;;;;;;14.35;7.68;;;10.90;99.90;;;;;;4937366;29;20467;-75
2023/12/22 12:25:11;;;;;;;17.48;7.47;;;11.00;99.90;;;;;;4954062;28;20019;-75
2023/12/22 12:27:38;;;;;;;17.05;7.75;;;11.10;99.90;;;;;;4953794;28;20498;-74
2023/12/22 12:30:14;;;;;;;14.65;7.47;;;11.20;99.90;;;;;;4954044;28;20035;-74
2023/12/22 12:32:46;;;;;;;14.85;6.93;;;11.30;99.90;;;;;;4953808;28;20034;-74
2023/12/22 12:35:12;;;;;;;12.80;6.72;;;11.30;99.90;;;;;;4953739;29;20526;-75